Adams, New York
Current Conditions -  °F | °C
As of 2:56 PM on Friday 31 Oct 2014 (Local Time) from KART Reporting Station
Overcast Overcast  
Wind Chill: 44°   Ceiling: 5500
Heat Index: 49°   Visibility: 10mi
Dew Point: 34°   Wind: 13mph
Humidity: 56%   Direction: 50°NE
Pressure: 29.97"   Gusts: NA
Location:  43.81°N, 76.02°W
Report Text: KART 311856Z AUTO 05011KT 10SM OVC055 09/01 A2997 RMK AO2 SLP152 T00940011
Loading
Personal Weather Stations






























Interactive Weather Map
Tropical Storm Tracking
New forecast layout! Learn more

10-Day Weather Forecast

Advertisements
Track Severe Weather on mobile